sensor_id;sensor_type;location;lat;lon;timestamp;temperature;humidity
2639;DHT22;1329;51.384;7.122;2023-09-08T00:02:28;20.30;1.00
2639;DHT22;1329;51.384;7.122;2023-09-08T00:04:55;20.30;1.00
2639;DHT22;1329;51.384;7.122;2023-09-08T00:07:22;20.30;1.00
2639;DHT22;1329;51.384;7.122;2023-09-08T00:09:49;20.20;1.00
2639;DHT22;1329;51.384;7.122;2023-09-08T00:12:17;20.20;1.00
2639;DHT22;1329;51.384;7.122;2023-09-08T00:14:44;20.20;1.00
2639;DHT22;1329;51.384;7.122;2023-09-08T00:17:11;20.10;1.00
2639;DHT22;1329;51.384;7.122;2023-09-08T00:19:38;20.10;1.00
2639;DHT22;1329;51.384;7.122;2023-09-08T00:22:05;20.10;1.00
2639;DHT22;1329;51.384;7.122;2023-09-08T00:24:32;20.10;1.00
2639;DHT22;1329;51.384;7.122;2023-09-08T00:26:59;20.00;1.00
2639;DHT22;1329;51.384;7.122;2023-09-08T00:29:28;20.00;1.00
2639;DHT22;1329;51.384;7.122;2023-09-08T00:31:55;20.00;1.00
2639;DHT22;1329;51.384;7.122;2023-09-08T00:34:22;19.90;1.00
2639;DHT22;1329;51.384;7.122;2023-09-08T00:36:48;19.90;1.00
2639;DHT22;1329;51.384;7.122;2023-09-08T00:39:16;19.90;1.00
2639;DHT22;1329;51.384;7.122;2023-09-08T00:41:43;19.80;1.00
2639;DHT22;1329;51.384;7.122;2023-09-08T00:44:10;19.80;1.00
2639;DHT22;1329;51.384;7.122;2023-09-08T00:46:39;19.80;1.00
2639;DHT22;1329;51.384;7.122;2023-09-08T00:49:06;19.80;1.00
2639;DHT22;1329;51.384;7.122;2023-09-08T00:51:34;19.70;1.00
2639;DHT22;1329;51.384;7.122;2023-09-08T00:54:04;19.70;1.00
2639;DHT22;1329;51.384;7.122;2023-09-08T00:56:31;19.70;1.00
2639;DHT22;1329;51.384;7.122;2023-09-08T00:58:59;19.60;1.00
2639;DHT22;1329;51.384;7.122;2023-09-08T01:01:28;19.60;1.00
2639;DHT22;1329;51.384;7.122;2023-09-08T01:03:56;19.60;1.00
2639;DHT22;1329;51.384;7.122;2023-09-08T01:06:23;19.50;1.00
2639;DHT22;1329;51.384;7.122;2023-09-08T01:08:50;19.50;1.00
2639;DHT22;1329;51.384;7.122;2023-09-08T01:11:19;19.50;1.00
2639;DHT22;1329;51.384;7.122;2023-09-08T01:13:47;19.50;1.00
2639;DHT22;1329;51.384;7.122;2023-09-08T01:16:13;19.50;1.00
2639;DHT22;1329;51.384;7.122;2023-09-08T01:18:40;19.40;1.00
2639;DHT22;1329;51.384;7.122;2023-09-08T01:27:37;19.40;1.00
2639;DHT22;1329;51.384;7.122;2023-09-08T01:30:06;19.40;1.00
2639;DHT22;1329;51.384;7.122;2023-09-08T01:32:34;19.30;1.00
2639;DHT22;1329;51.384;7.122;2023-09-08T01:35:02;19.30;1.00
2639;DHT22;1329;51.384;7.122;2023-09-08T01:37:30;19.30;1.00
2639;DHT22;1329;51.384;7.122;2023-09-08T01:39:57;19.30;1.00
2639;DHT22;1329;51.384;7.122;2023-09-08T01:42:24;19.20;1.00
2639;DHT22;1329;51.384;7.122;2023-09-08T01:44:52;19.20;1.00
2639;DHT22;1329;51.384;7.122;2023-09-08T01:47:19;19.20;1.00
2639;DHT22;1329;51.384;7.122;2023-09-08T01:49:48;19.20;1.00
2639;DHT22;1329;51.384;7.122;2023-09-08T01:52:14;19.20;1.00
2639;DHT22;1329;51.384;7.122;2023-09-08T01:54:41;19.20;1.00
2639;DHT22;1329;51.384;7.122;2023-09-08T01:57:09;19.10;1.00
2639;DHT22;1329;51.384;7.122;2023-09-08T01:59:35;19.10;1.00
2639;DHT22;1329;51.384;7.122;2023-09-08T02:02:05;19.10;1.00
2639;DHT22;1329;51.384;7.122;2023-09-08T02:04:32;19.10;1.00
2639;DHT22;1329;51.384;7.122;2023-09-08T02:06:59;19.00;1.00
2639;DHT22;1329;51.384;7.122;2023-09-08T02:09:30;19.00;1.00
2639;DHT22;1329;51.384;7.122;2023-09-08T02:11:58;19.00;1.00
2639;DHT22;1329;51.384;7.122;2023-09-08T02:14:25;19.00;1.00
2639;DHT22;1329;51.384;7.122;2023-09-08T02:16:53;19.00;1.00
2639;DHT22;1329;51.384;7.122;2023-09-08T02:19:21;19.00;1.00
2639;DHT22;1329;51.384;7.122;2023-09-08T02:21:48;19.00;1.00
2639;DHT22;1329;51.384;7.122;2023-09-08T02:24:15;19.00;1.00
2639;DHT22;1329;51.384;7.122;2023-09-08T02:26:42;18.90;1.00
2639;DHT22;1329;51.384;7.122;2023-09-08T02:29:09;19.00;1.00
2639;DHT22;1329;51.384;7.122;2023-09-08T02:31:36;18.90;1.00
2639;DHT22;1329;51.384;7.122;2023-09-08T02:34:03;18.90;1.00
2639;DHT22;1329;51.384;7.122;2023-09-08T02:36:31;18.90;1.00
2639;DHT22;1329;51.384;7.122;2023-09-08T02:38:58;18.80;1.00
2639;DHT22;1329;51.384;7.122;2023-09-08T02:41:25;18.80;1.00
2639;DHT22;1329;51.384;7.122;2023-09-08T02:43:52;18.80;1.00
2639;DHT22;1329;51.384;7.122;2023-09-08T02:46:19;18.80;1.00
2639;DHT22;1329;51.384;7.122;2023-09-08T02:48:46;18.70;1.00
2639;DHT22;1329;51.384;7.122;2023-09-08T02:51:13;18.70;1.00
2639;DHT22;1329;51.384;7.122;2023-09-08T02:53:41;18.70;1.00
2639;DHT22;1329;51.384;7.122;2023-09-08T02:56:08;18.70;1.00
2639;DHT22;1329;51.384;7.122;2023-09-08T02:58:35;18.70;1.00
2639;DHT22;1329;51.384;7.122;2023-09-08T03:01:13;18.70;1.00
2639;DHT22;1329;51.384;7.122;2023-09-08T03:03:41;18.70;1.00
2639;DHT22;1329;51.384;7.122;2023-09-08T03:06:08;18.70;1.00
2639;DHT22;1329;51.384;7.122;2023-09-08T03:08:36;18.70;1.00
2639;DHT22;1329;51.384;7.122;2023-09-08T03:11:05;18.60;1.00
2639;DHT22;1329;51.384;7.122;2023-09-08T03:13:32;18.60;1.00
2639;DHT22;1329;51.384;7.122;2023-09-08T03:16:07;18.60;1.00
2639;DHT22;1329;51.384;7.122;2023-09-08T03:18:35;18.60;1.00
2639;DHT22;1329;51.384;7.122;2023-09-08T03:21:03;18.50;1.00
2639;DHT22;1329;51.384;7.122;2023-09-08T03:23:34;18.50;1.00
2639;DHT22;1329;51.384;7.122;2023-09-08T03:26:02;18.50;1.00
2639;DHT22;1329;51.384;7.122;2023-09-08T03:28:31;18.50;1.00
2639;DHT22;1329;51.384;7.122;2023-09-08T03:30:59;18.50;1.00
2639;DHT22;1329;51.384;7.122;2023-09-08T03:33:26;18.50;1.00
2639;DHT22;1329;51.384;7.122;2023-09-08T03:35:53;18.40;1.00
2639;DHT22;1329;51.384;7.122;2023-09-08T03:38:21;18.40;1.00
2639;DHT22;1329;51.384;7.122;2023-09-08T03:40:48;18.40;1.00
2639;DHT22;1329;51.384;7.122;2023-09-08T03:43:15;18.40;1.00
2639;DHT22;1329;51.384;7.122;2023-09-08T03:45:43;18.40;1.00
2639;DHT22;1329;51.384;7.122;2023-09-08T03:48:10;18.40;1.00
2639;DHT22;1329;51.384;7.122;2023-09-08T03:50:37;18.40;1.00
2639;DHT22;1329;51.384;7.122;2023-09-08T03:53:05;18.40;1.00
2639;DHT22;1329;51.384;7.122;2023-09-08T03:55:31;18.30;1.00
2639;DHT22;1329;51.384;7.122;2023-09-08T03:57:59;18.30;1.00
2639;DHT22;1329;51.384;7.122;2023-09-08T04:00:26;18.30;1.00
2639;DHT22;1329;51.384;7.122;2023-09-08T04:02:54;18.30;1.00
2639;DHT22;1329;51.384;7.122;2023-09-08T04:05:22;18.30;1.00
2639;DHT22;1329;51.384;7.122;2023-09-08T04:07:49;18.30;1.00
2639;DHT22;1329;51.384;7.122;2023-09-08T04:10:16;18.30;1.00
2639;DHT22;1329;51.384;7.122;2023-09-08T04:12:43;18.30;1.00
2639;DHT22;1329;51.384;7.122;2023-09-08T04:15:10;18.30;1.00
2639;DHT22;1329;51.384;7.122;2023-09-08T04:17:37;18.30;1.00
2639;DHT22;1329;51.384;7.122;2023-09-08T04:20:07;18.20;1.00
2639;DHT22;1329;51.384;7.122;2023-09-08T04:22:34;18.20;1.00
2639;DHT22;1329;51.384;7.122;2023-09-08T04:25:02;18.30;1.00
2639;DHT22;1329;51.384;7.122;2023-09-08T04:27:31;18.20;1.00
2639;DHT22;1329;51.384;7.122;2023-09-08T04:29:59;18.20;1.00
2639;DHT22;1329;51.384;7.122;2023-09-08T04:32:25;18.20;1.00
2639;DHT22;1329;51.384;7.122;2023-09-08T04:34:52;18.20;1.00
2639;DHT22;1329;51.384;7.122;2023-09-08T04:37:20;18.20;1.00
2639;DHT22;1329;51.384;7.122;2023-09-08T04:39:47;18.20;1.00
2639;DHT22;1329;51.384;7.122;2023-09-08T04:42:14;18.20;1.00
2639;DHT22;1329;51.384;7.122;2023-09-08T04:44:41;18.20;1.00
2639;DHT22;1329;51.384;7.122;2023-09-08T04:47:08;18.20;1.00
2639;DHT22;1329;51.384;7.122;2023-09-08T04:49:35;18.20;1.00
2639;DHT22;1329;51.384;7.122;2023-09-08T04:52:02;18.10;1.00
2639;DHT22;1329;51.384;7.122;2023-09-08T04:54:31;18.10;1.00
2639;DHT22;1329;51.384;7.122;2023-09-08T04:56:58;18.20;1.00
2639;DHT22;1329;51.384;7.122;2023-09-08T04:59:25;18.10;1.00
2639;DHT22;1329;51.384;7.122;2023-09-08T05:01:52;18.10;1.00
2639;DHT22;1329;51.384;7.122;2023-09-08T05:04:19;18.10;1.00
2639;DHT22;1329;51.384;7.122;2023-09-08T05:06:46;18.10;1.00
2639;DHT22;1329;51.384;7.122;2023-09-08T05:09:13;18.10;1.00
2639;DHT22;1329;51.384;7.122;2023-09-08T05:11:41;18.00;1.00
2639;DHT22;1329;51.384;7.122;2023-09-08T05:14:09;18.10;1.00
2639;DHT22;1329;51.384;7.122;2023-09-08T05:16:36;18.10;1.00
2639;DHT22;1329;51.384;7.122;2023-09-08T05:19:05;18.10;1.00
2639;DHT22;1329;51.384;7.122;2023-09-08T05:21:33;18.00;1.00
2639;DHT22;1329;51.384;7.122;2023-09-08T05:24:00;18.00;1.00
2639;DHT22;1329;51.384;7.122;2023-09-08T05:26:27;18.00;1.00
2639;DHT22;1329;51.384;7.122;2023-09-08T05:28:55;18.00;1.00
2639;DHT22;1329;51.384;7.122;2023-09-08T05:31:22;18.00;1.00
2639;DHT22;1329;51.384;7.122;2023-09-08T05:33:49;18.00;1.00
2639;DHT22;1329;51.384;7.122;2023-09-08T05:36:16;18.00;1.00
2639;DHT22;1329;51.384;7.122;2023-09-08T05:38:43;18.00;1.00
2639;DHT22;1329;51.384;7.122;2023-09-08T05:41:10;18.00;1.00
2639;DHT22;1329;51.384;7.122;2023-09-08T05:43:37;18.00;1.00
2639;DHT22;1329;51.384;7.122;2023-09-08T05:46:05;18.10;1.00
2639;DHT22;1329;51.384;7.122;2023-09-08T05:48:32;18.00;1.00
2639;DHT22;1329;51.384;7.122;2023-09-08T05:50:59;18.00;1.00
2639;DHT22;1329;51.384;7.122;2023-09-08T05:53:27;18.10;1.00
2639;DHT22;1329;51.384;7.122;2023-09-08T05:55:54;18.10;1.00
2639;DHT22;1329;51.384;7.122;2023-09-08T05:58:21;18.10;1.00
2639;DHT22;1329;51.384;7.122;2023-09-08T06:00:49;18.10;1.00
2639;DHT22;1329;51.384;7.122;2023-09-08T06:03:18;18.10;1.00
2639;DHT22;1329;51.384;7.122;2023-09-08T06:05:45;18.20;1.00
2639;DHT22;1329;51.384;7.122;2023-09-08T06:08:12;18.20;1.00
2639;DHT22;1329;51.384;7.122;2023-09-08T06:10:39;18.20;1.00
2639;DHT22;1329;51.384;7.122;2023-09-08T06:13:06;18.20;1.00
2639;DHT22;1329;51.384;7.122;2023-09-08T06:15:33;18.30;1.00
2639;DHT22;1329;51.384;7.122;2023-09-08T06:17:59;18.30;1.00
2639;DHT22;1329;51.384;7.122;2023-09-08T06:20:27;18.30;1.00
2639;DHT22;1329;51.384;7.122;2023-09-08T06:22:54;18.40;1.00
2639;DHT22;1329;51.384;7.122;2023-09-08T06:25:21;18.40;1.00
2639;DHT22;1329;51.384;7.122;2023-09-08T06:27:47;18.40;1.00
2639;DHT22;1329;51.384;7.122;2023-09-08T06:30:14;18.40;1.00
2639;DHT22;1329;51.384;7.122;2023-09-08T06:32:43;18.50;1.00
2639;DHT22;1329;51.384;7.122;2023-09-08T06:35:10;18.60;1.00
2639;DHT22;1329;51.384;7.122;2023-09-08T06:37:39;18.60;1.00
2639;DHT22;1329;51.384;7.122;2023-09-08T06:40:06;18.70;1.70
2639;DHT22;1329;51.384;7.122;2023-09-08T06:42:34;18.70;1.00
2639;DHT22;1329;51.384;7.122;2023-09-08T06:45:01;18.70;1.30
2639;DHT22;1329;51.384;7.122;2023-09-08T06:47:28;18.80;3.00
2639;DHT22;1329;51.384;7.122;2023-09-08T06:49:55;18.80;4.30
2639;DHT22;1329;51.384;7.122;2023-09-08T06:52:22;18.90;5.20
2639;DHT22;1329;51.384;7.122;2023-09-08T06:54:51;18.90;5.00
2639;DHT22;1329;51.384;7.122;2023-09-08T06:57:18;19.00;7.90
2639;DHT22;1329;51.384;7.122;2023-09-08T06:59:46;19.00;7.30
2639;DHT22;1329;51.384;7.122;2023-09-08T07:02:13;19.10;8.30
2639;DHT22;1329;51.384;7.122;2023-09-08T07:04:40;19.10;9.60
2639;DHT22;1329;51.384;7.122;2023-09-08T07:07:07;19.20;10.00
2639;DHT22;1329;51.384;7.122;2023-09-08T07:09:36;19.20;10.90
2639;DHT22;1329;51.384;7.122;2023-09-08T07:12:05;19.30;11.30
2639;DHT22;1329;51.384;7.122;2023-09-08T07:14:32;19.30;13.50
2639;DHT22;1329;51.384;7.122;2023-09-08T07:16:59;19.40;11.70
2639;DHT22;1329;51.384;7.122;2023-09-08T07:19:26;19.50;12.50
2639;DHT22;1329;51.384;7.122;2023-09-08T07:21:53;19.50;13.30
2639;DHT22;1329;51.384;7.122;2023-09-08T07:24:21;19.60;13.20
2639;DHT22;1329;51.384;7.122;2023-09-08T07:26:47;19.60;13.40
2639;DHT22;1329;51.384;7.122;2023-09-08T07:29:16;19.70;13.60
2639;DHT22;1329;51.384;7.122;2023-09-08T07:31:43;19.80;14.40
2639;DHT22;1329;51.384;7.122;2023-09-08T07:34:10;19.80;13.50
2639;DHT22;1329;51.384;7.122;2023-09-08T07:36:36;19.90;13.40
2639;DHT22;1329;51.384;7.122;2023-09-08T07:39:04;20.00;13.70
2639;DHT22;1329;51.384;7.122;2023-09-08T07:41:31;20.00;14.20
2639;DHT22;1329;51.384;7.122;2023-09-08T07:43:58;20.10;14.30
2639;DHT22;1329;51.384;7.122;2023-09-08T07:46:26;20.10;14.50
2639;DHT22;1329;51.384;7.122;2023-09-08T07:48:53;20.20;15.70
2639;DHT22;1329;51.384;7.122;2023-09-08T07:51:20;20.30;15.70
2639;DHT22;1329;51.384;7.122;2023-09-08T07:53:47;20.30;16.60
2639;DHT22;1329;51.384;7.122;2023-09-08T07:56:13;20.40;16.10
2639;DHT22;1329;51.384;7.122;2023-09-08T07:58:40;20.50;16.60
2639;DHT22;1329;51.384;7.122;2023-09-08T08:01:07;20.50;16.30
2639;DHT22;1329;51.384;7.122;2023-09-08T08:03:36;20.60;16.90
2639;DHT22;1329;51.384;7.122;2023-09-08T08:06:03;20.60;17.10
2639;DHT22;1329;51.384;7.122;2023-09-08T08:08:31;20.80;17.40
2639;DHT22;1329;51.384;7.122;2023-09-08T08:10:58;20.80;17.90
2639;DHT22;1329;51.384;7.122;2023-09-08T08:13:25;20.90;17.10
2639;DHT22;1329;51.384;7.122;2023-09-08T08:15:52;21.00;17.40
2639;DHT22;1329;51.384;7.122;2023-09-08T08:18:19;21.10;16.80
2639;DHT22;1329;51.384;7.122;2023-09-08T08:20:47;21.10;17.30
2639;DHT22;1329;51.384;7.122;2023-09-08T08:23:15;21.20;16.80
2639;DHT22;1329;51.384;7.122;2023-09-08T08:25:41;21.30;16.40
2639;DHT22;1329;51.384;7.122;2023-09-08T08:28:08;21.40;16.40
2639;DHT22;1329;51.384;7.122;2023-09-08T08:30:35;21.40;16.00
2639;DHT22;1329;51.384;7.122;2023-09-08T08:33:03;21.50;16.40
2639;DHT22;1329;51.384;7.122;2023-09-08T08:35:30;21.60;16.90
2639;DHT22;1329;51.384;7.122;2023-09-08T08:37:59;21.70;17.10
2639;DHT22;1329;51.384;7.122;2023-09-08T08:40:26;21.70;16.70
2639;DHT22;1329;51.384;7.122;2023-09-08T08:42:55;21.80;16.40
2639;DHT22;1329;51.384;7.122;2023-09-08T08:45:23;21.90;15.30
2639;DHT22;1329;51.384;7.122;2023-09-08T08:47:51;22.00;16.00
2639;DHT22;1329;51.384;7.122;2023-09-08T08:50:19;22.00;14.90
2639;DHT22;1329;51.384;7.122;2023-09-08T08:52:47;22.10;14.10
2639;DHT22;1329;51.384;7.122;2023-09-08T08:55:15;22.30;10.20
2639;DHT22;1329;51.384;7.122;2023-09-08T08:57:43;22.30;7.00
2639;DHT22;1329;51.384;7.122;2023-09-08T09:00:11;22.40;7.90
2639;DHT22;1329;51.384;7.122;2023-09-08T09:02:42;22.50;7.90
2639;DHT22;1329;51.384;7.122;2023-09-08T09:05:11;22.70;3.60
2639;DHT22;1329;51.384;7.122;2023-09-08T09:07:39;22.80;1.00
2639;DHT22;1329;51.384;7.122;2023-09-08T09:10:08;22.80;1.00
2639;DHT22;1329;51.384;7.122;2023-09-08T09:12:38;22.90;1.00
2639;DHT22;1329;51.384;7.122;2023-09-08T09:15:06;23.10;1.00
2639;DHT22;1329;51.384;7.122;2023-09-08T09:17:34;23.20;1.00
2639;DHT22;1329;51.384;7.122;2023-09-08T09:20:14;23.30;1.00
2639;DHT22;1329;51.384;7.122;2023-09-08T09:22:43;23.40;1.00
2639;DHT22;1329;51.384;7.122;2023-09-08T09:25:21;23.50;1.00
2639;DHT22;1329;51.384;7.122;2023-09-08T09:27:51;23.60;1.00
2639;DHT22;1329;51.384;7.122;2023-09-08T09:30:19;23.80;1.00
2639;DHT22;1329;51.384;7.122;2023-09-08T09:32:47;23.90;1.00
2639;DHT22;1329;51.384;7.122;2023-09-08T09:35:15;24.00;1.00
2639;DHT22;1329;51.384;7.122;2023-09-08T09:37:56;24.10;1.00
2639;DHT22;1329;51.384;7.122;2023-09-08T09:40:23;24.20;1.00
2639;DHT22;1329;51.384;7.122;2023-09-08T09:42:55;24.30;1.00
2639;DHT22;1329;51.384;7.122;2023-09-08T09:45:24;24.30;1.00
2639;DHT22;1329;51.384;7.122;2023-09-08T09:47:55;24.40;1.00
2639;DHT22;1329;51.384;7.122;2023-09-08T09:50:28;24.50;1.00
2639;DHT22;1329;51.384;7.122;2023-09-08T09:53:09;24.60;1.00
2639;DHT22;1329;51.384;7.122;2023-09-08T09:55:55;24.60;1.00
2639;DHT22;1329;51.384;7.122;2023-09-08T09:58:35;24.70;1.00
2639;DHT22;1329;51.384;7.122;2023-09-08T10:01:04;24.80;1.00
2639;DHT22;1329;51.384;7.122;2023-09-08T10:03:32;24.90;1.00
2639;DHT22;1329;51.384;7.122;2023-09-08T10:06:00;24.90;1.00
2639;DHT22;1329;51.384;7.122;2023-09-08T10:08:34;25.10;1.00
2639;DHT22;1329;51.384;7.122;2023-09-08T10:11:06;25.10;1.00
2639;DHT22;1329;51.384;7.122;2023-09-08T10:13:39;25.20;1.00
2639;DHT22;1329;51.384;7.122;2023-09-08T10:16:11;25.20;1.00
2639;DHT22;1329;51.384;7.122;2023-09-08T10:18:44;25.30;1.00
2639;DHT22;1329;51.384;7.122;2023-09-08T10:21:13;25.40;1.00
2639;DHT22;1329;51.384;7.122;2023-09-08T10:23:48;25.40;1.00
2639;DHT22;1329;51.384;7.122;2023-09-08T10:26:20;25.50;1.00
2639;DHT22;1329;51.384;7.122;2023-09-08T10:28:50;25.60;1.00
2639;DHT22;1329;51.384;7.122;2023-09-08T10:31:26;25.70;1.00
2639;DHT22;1329;51.384;7.122;2023-09-08T10:34:01;25.70;1.00
2639;DHT22;1329;51.384;7.122;2023-09-08T10:36:29;25.70;1.00
2639;DHT22;1329;51.384;7.122;2023-09-08T10:39:28;25.80;1.00
2639;DHT22;1329;51.384;7.122;2023-09-08T10:42:25;25.90;1.00
2639;DHT22;1329;51.384;7.122;2023-09-08T10:45:00;26.00;1.00
2639;DHT22;1329;51.384;7.122;2023-09-08T10:47:39;26.00;1.00
2639;DHT22;1329;51.384;7.122;2023-09-08T10:50:16;26.00;1.00
2639;DHT22;1329;51.384;7.122;2023-09-08T10:52:44;26.10;1.00
2639;DHT22;1329;51.384;7.122;2023-09-08T10:55:12;26.10;1.00
2639;DHT22;1329;51.384;7.122;2023-09-08T10:57:44;26.20;1.00
2639;DHT22;1329;51.384;7.122;2023-09-08T11:00:18;26.20;1.00
2639;DHT22;1329;51.384;7.122;2023-09-08T11:02:49;26.30;1.00
2639;DHT22;1329;51.384;7.122;2023-09-08T11:05:17;26.30;1.00
2639;DHT22;1329;51.384;7.122;2023-09-08T11:07:57;26.30;1.00
2639;DHT22;1329;51.384;7.122;2023-09-08T11:10:29;26.40;1.00
2639;DHT22;1329;51.384;7.122;2023-09-08T11:12:57;26.40;1.00
2639;DHT22;1329;51.384;7.122;2023-09-08T11:15:29;26.40;1.00
2639;DHT22;1329;51.384;7.122;2023-09-08T11:17:56;26.50;1.00
2639;DHT22;1329;51.384;7.122;2023-09-08T11:20:26;26.50;1.00
2639;DHT22;1329;51.384;7.122;2023-09-08T11:22:54;26.60;1.00
2639;DHT22;1329;51.384;7.122;2023-09-08T11:25:21;26.60;1.00
2639;DHT22;1329;51.384;7.122;2023-09-08T11:27:49;26.60;1.00
2639;DHT22;1329;51.384;7.122;2023-09-08T11:30:17;26.70;1.00
2639;DHT22;1329;51.384;7.122;2023-09-08T11:32:47;26.80;1.00
2639;DHT22;1329;51.384;7.122;2023-09-08T11:35:14;26.80;1.00
2639;DHT22;1329;51.384;7.122;2023-09-08T11:37:41;26.90;1.00
2639;DHT22;1329;51.384;7.122;2023-09-08T11:40:09;26.90;1.00
2639;DHT22;1329;51.384;7.122;2023-09-08T11:42:38;26.90;1.00
2639;DHT22;1329;51.384;7.122;2023-09-08T11:45:10;27.00;1.00
2639;DHT22;1329;51.384;7.122;2023-09-08T11:47:41;27.10;1.00
2639;DHT22;1329;51.384;7.122;2023-09-08T11:50:12;27.10;1.00
2639;DHT22;1329;51.384;7.122;2023-09-08T11:52:51;27.10;1.00
2639;DHT22;1329;51.384;7.122;2023-09-08T11:55:20;27.20;1.00
2639;DHT22;1329;51.384;7.122;2023-09-08T11:57:54;27.20;1.00
2639;DHT22;1329;51.384;7.122;2023-09-08T12:00:24;27.20;1.00
2639;DHT22;1329;51.384;7.122;2023-09-08T12:02:52;27.20;1.00
2639;DHT22;1329;51.384;7.122;2023-09-08T12:05:25;27.30;1.00
2639;DHT22;1329;51.384;7.122;2023-09-08T12:07:58;27.40;1.00
2639;DHT22;1329;51.384;7.122;2023-09-08T12:10:27;27.40;1.00
2639;DHT22;1329;51.384;7.122;2023-09-08T12:12:55;27.40;1.00
2639;DHT22;1329;51.384;7.122;2023-09-08T12:15:32;27.40;1.00
2639;DHT22;1329;51.384;7.122;2023-09-08T12:18:00;27.50;1.00
2639;DHT22;1329;51.384;7.122;2023-09-08T12:20:37;27.50;1.00
2639;DHT22;1329;51.384;7.122;2023-09-08T12:23:06;27.60;1.00
2639;DHT22;1329;51.384;7.122;2023-09-08T12:25:45;27.60;1.00
2639;DHT22;1329;51.384;7.122;2023-09-08T12:28:12;27.70;1.00
2639;DHT22;1329;51.384;7.122;2023-09-08T12:30:39;27.70;1.00
2639;DHT22;1329;51.384;7.122;2023-09-08T12:33:07;27.80;1.00
2639;DHT22;1329;51.384;7.122;2023-09-08T12:35:38;27.90;1.00
2639;DHT22;1329;51.384;7.122;2023-09-08T12:38:05;27.90;1.00
2639;DHT22;1329;51.384;7.122;2023-09-08T12:40:34;28.10;1.00
2639;DHT22;1329;51.384;7.122;2023-09-08T12:43:02;28.20;1.00
2639;DHT22;1329;51.384;7.122;2023-09-08T12:45:31;28.30;1.00
2639;DHT22;1329;51.384;7.122;2023-09-08T12:48:07;28.30;1.00
2639;DHT22;1329;51.384;7.122;2023-09-08T12:50:39;28.40;1.00
2639;DHT22;1329;51.384;7.122;2023-09-08T12:53:06;28.50;1.00
2639;DHT22;1329;51.384;7.122;2023-09-08T12:55:33;28.60;1.00
2639;DHT22;1329;51.384;7.122;2023-09-08T12:58:00;28.70;1.00
2639;DHT22;1329;51.384;7.122;2023-09-08T13:00:27;28.80;1.00
2639;DHT22;1329;51.384;7.122;2023-09-08T13:05:36;29.10;1.00
2639;DHT22;1329;51.384;7.122;2023-09-08T13:08:05;29.10;1.00
2639;DHT22;1329;51.384;7.122;2023-09-08T13:10:33;29.20;1.00
2639;DHT22;1329;51.384;7.122;2023-09-08T13:13:03;29.40;1.00
2639;DHT22;1329;51.384;7.122;2023-09-08T13:15:30;29.40;1.00
2639;DHT22;1329;51.384;7.122;2023-09-08T13:17:57;29.50;1.00
2639;DHT22;1329;51.384;7.122;2023-09-08T13:20:24;29.60;1.00
2639;DHT22;1329;51.384;7.122;2023-09-08T13:22:55;29.60;1.00
2639;DHT22;1329;51.384;7.122;2023-09-08T13:25:23;29.70;1.00
2639;DHT22;1329;51.384;7.122;2023-09-08T13:27:50;29.80;1.00
2639;DHT22;1329;51.384;7.122;2023-09-08T13:30:24;29.80;1.00
2639;DHT22;1329;51.384;7.122;2023-09-08T13:32:52;29.90;1.00
2639;DHT22;1329;51.384;7.122;2023-09-08T13:35:21;30.00;1.00
2639;DHT22;1329;51.384;7.122;2023-09-08T13:37:48;30.00;1.00
2639;DHT22;1329;51.384;7.122;2023-09-08T13:40:15;30.10;1.00
2639;DHT22;1329;51.384;7.122;2023-09-08T13:42:43;30.20;1.00
2639;DHT22;1329;51.384;7.122;2023-09-08T13:45:11;30.20;1.00
2639;DHT22;1329;51.384;7.122;2023-09-08T13:47:38;30.30;1.00
2639;DHT22;1329;51.384;7.122;2023-09-08T13:50:08;30.30;1.00
2639;DHT22;1329;51.384;7.122;2023-09-08T13:52:38;30.40;1.00
2639;DHT22;1329;51.384;7.122;2023-09-08T13:55:06;30.40;1.00
2639;DHT22;1329;51.384;7.122;2023-09-08T13:57:34;30.50;1.00
2639;DHT22;1329;51.384;7.122;2023-09-08T14:00:06;30.50;1.00
2639;DHT22;1329;51.384;7.122;2023-09-08T14:02:34;30.60;1.00
2639;DHT22;1329;51.384;7.122;2023-09-08T14:05:01;30.70;1.00
2639;DHT22;1329;51.384;7.122;2023-09-08T14:07:28;30.70;1.00
2639;DHT22;1329;51.384;7.122;2023-09-08T14:09:55;30.70;1.00
2639;DHT22;1329;51.384;7.122;2023-09-08T14:12:24;30.80;1.00
2639;DHT22;1329;51.384;7.122;2023-09-08T14:14:51;30.80;1.00
2639;DHT22;1329;51.384;7.122;2023-09-08T14:17:19;30.90;1.00
2639;DHT22;1329;51.384;7.122;2023-09-08T14:19:46;30.90;1.00
2639;DHT22;1329;51.384;7.122;2023-09-08T14:22:13;31.00;1.00
2639;DHT22;1329;51.384;7.122;2023-09-08T14:24:40;31.00;1.00
2639;DHT22;1329;51.384;7.122;2023-09-08T14:27:07;31.10;1.00
2639;DHT22;1329;51.384;7.122;2023-09-08T14:29:34;31.10;1.00
2639;DHT22;1329;51.384;7.122;2023-09-08T14:32:02;31.10;1.00
2639;DHT22;1329;51.384;7.122;2023-09-08T14:34:31;31.10;1.00
2639;DHT22;1329;51.384;7.122;2023-09-08T14:37:00;31.20;1.00
2639;DHT22;1329;51.384;7.122;2023-09-08T14:39:32;31.20;1.00
2639;DHT22;1329;51.384;7.122;2023-09-08T14:45:04;31.30;1.00
2639;DHT22;1329;51.384;7.122;2023-09-08T14:47:35;31.30;1.00
2639;DHT22;1329;51.384;7.122;2023-09-08T14:50:04;31.30;1.00
2639;DHT22;1329;51.384;7.122;2023-09-08T14:52:31;31.40;1.00
2639;DHT22;1329;51.384;7.122;2023-09-08T14:54:59;31.40;1.00
2639;DHT22;1329;51.384;7.122;2023-09-08T14:57:26;31.40;1.00
2639;DHT22;1329;51.384;7.122;2023-09-08T14:59:53;31.40;1.00
2639;DHT22;1329;51.384;7.122;2023-09-08T15:02:24;31.50;1.00
2639;DHT22;1329;51.384;7.122;2023-09-08T15:04:51;31.50;1.00
2639;DHT22;1329;51.384;7.122;2023-09-08T15:07:20;31.50;1.00
2639;DHT22;1329;51.384;7.122;2023-09-08T15:09:47;31.50;1.00
2639;DHT22;1329;51.384;7.122;2023-09-08T15:12:15;31.50;1.00
2639;DHT22;1329;51.384;7.122;2023-09-08T15:14:48;31.60;1.00
2639;DHT22;1329;51.384;7.122;2023-09-08T15:17:49;31.60;1.00
2639;DHT22;1329;51.384;7.122;2023-09-08T15:20:17;31.60;1.00
2639;DHT22;1329;51.384;7.122;2023-09-08T15:23:06;31.60;1.00
2639;DHT22;1329;51.384;7.122;2023-09-08T15:25:49;31.60;1.00
2639;DHT22;1329;51.384;7.122;2023-09-08T15:28:21;31.60;1.00
2639;DHT22;1329;51.384;7.122;2023-09-08T15:31:07;31.60;1.00
2639;DHT22;1329;51.384;7.122;2023-09-08T15:33:34;31.60;1.00
2639;DHT22;1329;51.384;7.122;2023-09-08T15:36:01;31.60;1.00
2639;DHT22;1329;51.384;7.122;2023-09-08T15:38:30;31.60;1.00
2639;DHT22;1329;51.384;7.122;2023-09-08T15:41:17;31.60;1.00
2639;DHT22;1329;51.384;7.122;2023-09-08T15:44:12;31.60;1.00
2639;DHT22;1329;51.384;7.122;2023-09-08T15:47:10;31.70;1.00
2639;DHT22;1329;51.384;7.122;2023-09-08T15:49:37;31.70;1.00
2639;DHT22;1329;51.384;7.122;2023-09-08T15:52:24;31.60;1.00
2639;DHT22;1329;51.384;7.122;2023-09-08T15:54:53;31.60;1.00
2639;DHT22;1329;51.384;7.122;2023-09-08T15:57:20;31.60;1.00
2639;DHT22;1329;51.384;7.122;2023-09-08T15:59:48;31.60;1.00
2639;DHT22;1329;51.384;7.122;2023-09-08T16:02:15;31.60;1.00
2639;DHT22;1329;51.384;7.122;2023-09-08T16:04:43;31.60;1.00
2639;DHT22;1329;51.384;7.122;2023-09-08T16:07:10;31.60;1.00
2639;DHT22;1329;51.384;7.122;2023-09-08T16:09:38;31.60;1.00
2639;DHT22;1329;51.384;7.122;2023-09-08T16:12:07;31.60;1.00
2639;DHT22;1329;51.384;7.122;2023-09-08T16:14:34;31.60;1.00
2639;DHT22;1329;51.384;7.122;2023-09-08T16:17:17;31.60;1.00
2639;DHT22;1329;51.384;7.122;2023-09-08T16:19:44;31.60;1.00
2639;DHT22;1329;51.384;7.122;2023-09-08T16:22:11;31.50;1.00
2639;DHT22;1329;51.384;7.122;2023-09-08T16:24:45;31.50;1.00
2639;DHT22;1329;51.384;7.122;2023-09-08T16:27:13;31.50;1.00
2639;DHT22;1329;51.384;7.122;2023-09-08T16:29:40;31.40;1.00
2639;DHT22;1329;51.384;7.122;2023-09-08T16:32:14;31.30;1.00
2639;DHT22;1329;51.384;7.122;2023-09-08T16:34:41;31.30;1.00
2639;DHT22;1329;51.384;7.122;2023-09-08T16:37:17;31.20;1.00
2639;DHT22;1329;51.384;7.122;2023-09-08T16:39:46;31.20;1.00
2639;DHT22;1329;51.384;7.122;2023-09-08T16:42:14;31.20;1.00